createdAt,value
2022-10-31T00:00:11.111Z,0.00
2022-10-31T00:01:17.063Z,0.00
2022-10-31T00:02:11.197Z,0.00
2022-10-31T00:03:11.067Z,0.00
2022-10-31T00:04:11.070Z,0.00
2022-10-31T00:05:11.066Z,0.00
2022-10-31T00:06:11.063Z,0.00
2022-10-31T00:07:11.066Z,0.00
2022-10-31T00:08:11.068Z,0.00
2022-10-31T00:09:12.064Z,0.00
2022-10-31T00:10:11.067Z,0.00
2022-10-31T00:11:13.065Z,0.00
2022-10-31T00:12:11.064Z,0.00
2022-10-31T00:13:11.150Z,0.00
2022-10-31T00:14:11.072Z,0.00
2022-10-31T00:15:11.068Z,0.00
2022-10-31T00:16:19.065Z,0.00
2022-10-31T00:17:11.072Z,0.00
2022-10-31T00:18:11.067Z,0.00
2022-10-31T00:19:11.062Z,0.00
2022-10-31T00:20:11.070Z,0.00
2022-10-31T00:21:11.059Z,0.00
2022-10-31T00:22:11.054Z,0.00
2022-10-31T00:23:11.057Z,0.00
2022-10-31T00:24:11.059Z,0.00
2022-10-31T00:25:11.058Z,0.00
2022-10-31T00:26:11.057Z,0.00
2022-10-31T00:27:11.060Z,0.00
2022-10-31T00:28:12.154Z,0.00
2022-10-31T00:29:11.058Z,0.00
2022-10-31T00:30:11.061Z,0.00
2022-10-31T00:31:11.058Z,0.00
2022-10-31T00:32:11.063Z,0.00
2022-10-31T00:33:11.068Z,0.00
2022-10-31T00:34:11.056Z,0.00
2022-10-31T00:35:11.059Z,0.00
2022-10-31T00:36:13.061Z,0.00
2022-10-31T00:37:11.058Z,0.00
2022-10-31T00:38:11.065Z,0.00
2022-10-31T00:39:11.067Z,0.00
2022-10-31T00:40:11.060Z,0.00
2022-10-31T00:41:13.062Z,0.00
2022-10-31T00:42:11.062Z,0.00
2022-10-31T00:44:11.059Z,0.00
2022-10-31T00:45:11.065Z,0.00
2022-10-31T00:46:11.062Z,0.00
2022-10-31T00:47:11.058Z,0.00
2022-10-31T00:48:11.060Z,0.00
2022-10-31T00:49:11.063Z,0.00
2022-10-31T00:50:11.064Z,0.00
2022-10-31T00:51:11.063Z,0.00
2022-10-31T00:52:11.068Z,0.00
2022-10-31T00:53:11.063Z,0.00
2022-10-31T00:54:11.064Z,0.00
2022-10-31T00:55:11.070Z,0.00
2022-10-31T00:56:11.061Z,0.00
2022-10-31T00:57:11.064Z,0.00
2022-10-31T00:58:11.125Z,0.00
2022-10-31T00:59:11.064Z,0.00
2022-10-31T01:00:11.058Z,0.00
2022-10-31T01:01:11.182Z,0.00
2022-10-31T01:02:11.251Z,0.00
2022-10-31T01:03:11.060Z,0.00
2022-10-31T01:04:11.061Z,0.00
2022-10-31T01:05:11.065Z,0.00
2022-10-31T01:06:11.062Z,0.00
2022-10-31T01:07:11.062Z,0.00
2022-10-31T01:08:11.065Z,0.00
2022-10-31T01:09:11.062Z,0.00
2022-10-31T01:10:11.062Z,0.00
2022-10-31T01:11:14.066Z,0.00
2022-10-31T01:12:11.063Z,0.00
2022-10-31T01:13:11.120Z,0.00
2022-10-31T01:14:11.073Z,0.00
2022-10-31T01:15:11.062Z,0.00
2022-10-31T01:16:11.066Z,0.00
2022-10-31T01:17:11.070Z,0.00
2022-10-31T01:18:11.067Z,0.00
2022-10-31T01:19:11.061Z,0.00
2022-10-31T01:20:11.067Z,0.00
2022-10-31T01:21:14.057Z,0.00
2022-10-31T01:22:11.057Z,0.00
2022-10-31T01:23:11.061Z,0.00
2022-10-31T01:24:11.066Z,0.00
2022-10-31T01:25:11.062Z,0.00
2022-10-31T01:26:11.055Z,0.00
2022-10-31T01:27:11.063Z,0.00
2022-10-31T01:28:11.133Z,0.00
2022-10-31T01:29:11.056Z,0.00
2022-10-31T01:30:11.069Z,0.00
2022-10-31T01:31:11.059Z,0.00
2022-10-31T01:32:11.060Z,0.00
2022-10-31T01:33:11.058Z,0.00
2022-10-31T01:34:13.061Z,0.00
2022-10-31T01:35:11.058Z,0.00
2022-10-31T01:36:15.060Z,0.00
2022-10-31T01:37:11.068Z,0.00
2022-10-31T01:38:11.059Z,0.00
2022-10-31T01:39:17.061Z,0.00
2022-10-31T01:40:11.059Z,0.00
2022-10-31T01:41:11.062Z,0.00
2022-10-31T01:42:16.059Z,0.00
2022-10-31T01:43:14.111Z,0.00
2022-10-31T01:44:19.081Z,0.00
2022-10-31T01:45:12.071Z,0.00
2022-10-31T01:46:11.060Z,0.00
2022-10-31T01:47:16.063Z,0.00
2022-10-31T01:48:14.070Z,0.00
2022-10-31T01:49:16.060Z,0.01
2022-10-31T01:50:18.061Z,0.00
2022-10-31T01:51:11.064Z,0.00
2022-10-31T01:52:19.062Z,0.00
2022-10-31T01:53:11.064Z,0.00
2022-10-31T01:54:16.057Z,0.00
2022-10-31T01:55:18.071Z,0.00
2022-10-31T01:56:11.071Z,0.00
2022-10-31T01:57:12.062Z,0.00
2022-10-31T01:58:15.112Z,0.00
2022-10-31T01:59:13.062Z,0.00
2022-10-31T02:00:11.071Z,0.00
2022-10-31T02:01:11.178Z,0.00
2022-10-31T02:02:11.238Z,0.00
2022-10-31T02:03:11.066Z,0.00
2022-10-31T02:04:11.066Z,0.00
2022-10-31T02:05:16.064Z,0.00
2022-10-31T02:06:17.070Z,0.00
2022-10-31T02:07:19.066Z,0.00
2022-10-31T02:08:19.065Z,0.00
2022-10-31T02:09:11.065Z,0.00
2022-10-31T02:10:11.070Z,0.00
2022-10-31T02:11:11.068Z,0.00
2022-10-31T02:12:12.065Z,0.00
2022-10-31T02:13:11.154Z,0.00
2022-10-31T02:14:11.064Z,0.00
2022-10-31T02:15:11.063Z,0.00
2022-10-31T02:16:12.063Z,0.00
2022-10-31T02:17:11.065Z,0.00
2022-10-31T02:18:11.062Z,0.00
2022-10-31T02:19:14.063Z,0.00
2022-10-31T02:20:19.065Z,0.00
2022-10-31T02:21:19.060Z,0.00
2022-10-31T02:22:21.057Z,0.00
2022-10-31T02:23:19.062Z,0.00
2022-10-31T02:24:19.058Z,0.00
2022-10-31T02:25:19.066Z,0.00
2022-10-31T02:26:19.068Z,0.00
2022-10-31T02:27:19.061Z,0.00
2022-10-31T02:29:19.062Z,0.00
2022-10-31T02:30:19.061Z,0.00
2022-10-31T02:31:21.069Z,0.00
2022-10-31T02:32:21.066Z,0.00
2022-10-31T02:33:19.059Z,0.00
2022-10-31T02:34:19.059Z,0.00
2022-10-31T02:35:18.059Z,0.00
2022-10-31T02:36:19.074Z,0.00
2022-10-31T02:37:21.060Z,0.00
2022-10-31T02:38:19.059Z,0.00
2022-10-31T02:39:19.058Z,0.00
2022-10-31T02:40:21.061Z,0.00
2022-10-31T02:41:20.063Z,0.00
2022-10-31T02:42:18.069Z,0.00
2022-10-31T02:43:22.062Z,0.00
2022-10-31T02:44:16.062Z,0.00
2022-10-31T02:45:18.061Z,0.00
2022-10-31T02:46:15.064Z,0.00
2022-10-31T02:47:18.075Z,0.00
2022-10-31T02:48:13.073Z,0.00
2022-10-31T02:49:23.061Z,0.00
2022-10-31T02:50:20.060Z,0.00
2022-10-31T02:51:12.065Z,0.00
2022-10-31T02:52:19.070Z,0.00
2022-10-31T02:53:11.070Z,0.00
2022-10-31T02:54:18.062Z,0.00
2022-10-31T02:55:18.059Z,0.00
2022-10-31T02:56:17.061Z,0.00
2022-10-31T02:57:11.070Z,0.00
2022-10-31T02:59:11.061Z,0.00
2022-10-31T03:00:11.063Z,0.00
2022-10-31T03:01:21.206Z,0.00
2022-10-31T03:02:19.255Z,0.00
2022-10-31T03:03:19.064Z,0.00
2022-10-31T03:04:19.064Z,0.00
2022-10-31T03:05:18.079Z,0.00
2022-10-31T03:06:21.065Z,0.00
2022-10-31T03:07:21.064Z,0.00
2022-10-31T03:08:21.062Z,0.00
2022-10-31T03:09:19.064Z,0.00
2022-10-31T03:10:19.064Z,0.00
2022-10-31T03:11:11.063Z,0.00
2022-10-31T03:12:15.065Z,0.00
2022-10-31T03:13:19.111Z,0.00
2022-10-31T03:14:17.066Z,0.00
2022-10-31T03:15:23.076Z,0.00
2022-10-31T03:16:23.065Z,0.00
2022-10-31T03:17:15.065Z,0.00
2022-10-31T03:18:17.064Z,0.00
2022-10-31T03:19:23.065Z,0.00
2022-10-31T03:20:11.066Z,0.00
2022-10-31T03:21:15.064Z,0.00
2022-10-31T03:22:17.058Z,0.00
2022-10-31T03:23:14.055Z,0.00
2022-10-31T03:24:11.058Z,0.00
2022-10-31T03:25:11.066Z,0.00
2022-10-31T03:26:12.057Z,0.00
2022-10-31T03:27:11.066Z,0.00
2022-10-31T03:28:12.160Z,0.00
2022-10-31T03:29:13.066Z,0.00
2022-10-31T03:30:11.055Z,0.00
2022-10-31T03:31:11.061Z,0.00
2022-10-31T03:32:13.062Z,0.00
2022-10-31T03:33:13.079Z,0.00
2022-10-31T03:34:11.058Z,0.00
2022-10-31T03:35:11.060Z,0.00
2022-10-31T03:36:11.057Z,0.00
2022-10-31T03:37:13.059Z,0.00
2022-10-31T03:38:11.060Z,0.00
2022-10-31T03:39:13.057Z,0.00
2022-10-31T03:40:11.063Z,0.00
2022-10-31T03:41:12.067Z,0.00
2022-10-31T03:42:18.082Z,0.00
2022-10-31T03:43:15.111Z,0.00
2022-10-31T03:44:14.059Z,0.00
2022-10-31T03:45:16.067Z,0.00
2022-10-31T03:46:11.061Z,0.00
2022-10-31T03:47:11.059Z,0.00
2022-10-31T03:48:11.060Z,0.00
2022-10-31T03:49:11.064Z,0.00
2022-10-31T03:50:11.058Z,0.00
2022-10-31T03:51:19.063Z,0.00
2022-10-31T03:52:21.068Z,0.00
2022-10-31T03:53:22.075Z,0.00
2022-10-31T03:54:19.064Z,0.00
2022-10-31T03:55:21.067Z,0.00
2022-10-31T03:56:22.059Z,0.00
2022-10-31T03:57:19.061Z,0.00
2022-10-31T03:58:17.243Z,0.00
2022-10-31T03:59:21.074Z,0.00
2022-10-31T04:00:14.071Z,0.00
2022-10-31T04:01:14.168Z,0.00
2022-10-31T04:02:14.248Z,0.00
2022-10-31T04:03:19.069Z,0.00
2022-10-31T04:04:11.064Z,0.00
2022-10-31T04:05:11.061Z,0.00
2022-10-31T04:06:12.061Z,0.00
2022-10-31T04:07:12.069Z,0.00
2022-10-31T04:08:12.060Z,0.00
2022-10-31T04:09:11.072Z,0.00
2022-10-31T04:10:13.071Z,0.00
2022-10-31T04:11:11.064Z,0.00
2022-10-31T04:12:12.061Z,0.00
2022-10-31T04:13:14.126Z,0.00
2022-10-31T04:14:11.073Z,0.00
2022-10-31T04:15:11.062Z,0.00
2022-10-31T04:16:14.223Z,0.00
2022-10-31T04:17:15.103Z,0.00
2022-10-31T04:18:11.064Z,0.00
2022-10-31T04:19:13.061Z,0.00
2022-10-31T04:20:11.064Z,0.00
2022-10-31T04:21:11.067Z,0.00
2022-10-31T04:22:11.056Z,0.00
2022-10-31T04:23:21.059Z,0.01
2022-10-31T04:24:11.058Z,0.00
2022-10-31T04:25:11.058Z,0.00
2022-10-31T04:26:13.057Z,0.00
2022-10-31T04:27:11.060Z,0.00
2022-10-31T04:28:11.114Z,0.00
2022-10-31T04:29:11.060Z,0.00
2022-10-31T04:30:11.055Z,0.00
2022-10-31T04:31:11.061Z,0.00
2022-10-31T04:32:11.060Z,0.00
2022-10-31T04:33:11.058Z,0.00
2022-10-31T04:34:11.067Z,0.00
2022-10-31T04:35:11.061Z,0.00
2022-10-31T04:36:11.061Z,0.00
2022-10-31T04:37:11.060Z,0.00
2022-10-31T04:38:11.062Z,0.00
2022-10-31T04:39:11.058Z,0.00
2022-10-31T04:40:11.058Z,0.00
2022-10-31T04:41:11.061Z,0.00
2022-10-31T04:42:11.057Z,0.00
2022-10-31T04:43:11.110Z,0.00
2022-10-31T04:44:11.066Z,0.00
2022-10-31T04:45:13.338Z,0.00
2022-10-31T04:46:11.061Z,0.00
2022-10-31T04:47:11.068Z,0.00
2022-10-31T04:48:11.060Z,0.00
2022-10-31T04:49:11.064Z,0.00
2022-10-31T04:50:11.068Z,0.00
2022-10-31T04:51:11.062Z,0.00
2022-10-31T04:52:11.056Z,0.00
2022-10-31T04:53:11.060Z,0.00
2022-10-31T04:54:11.063Z,0.00
2022-10-31T04:55:11.062Z,0.00
2022-10-31T04:56:11.060Z,0.00
2022-10-31T04:57:11.064Z,0.00
2022-10-31T04:58:11.144Z,0.00
2022-10-31T04:59:11.062Z,0.00
2022-10-31T05:00:11.061Z,0.00
2022-10-31T05:01:11.182Z,0.00
2022-10-31T05:02:11.239Z,0.00
2022-10-31T05:03:11.063Z,0.00
2022-10-31T05:04:11.060Z,0.00
2022-10-31T05:05:11.061Z,0.00
2022-10-31T05:06:11.064Z,0.00
2022-10-31T05:07:11.064Z,0.00
2022-10-31T05:08:11.063Z,0.00
2022-10-31T05:09:11.070Z,0.00
2022-10-31T05:10:11.065Z,0.00
2022-10-31T05:11:11.059Z,0.00
2022-10-31T05:12:11.065Z,0.00
2022-10-31T05:13:11.156Z,0.00
2022-10-31T05:14:11.063Z,0.00
2022-10-31T05:15:11.063Z,0.00
2022-10-31T05:16:11.065Z,0.00
2022-10-31T05:17:11.063Z,0.00
2022-10-31T05:18:11.082Z,0.00
2022-10-31T05:19:11.064Z,0.00
2022-10-31T05:20:11.062Z,0.00
2022-10-31T05:21:11.061Z,0.00
2022-10-31T05:22:11.069Z,0.00
2022-10-31T05:23:11.059Z,0.00
2022-10-31T05:24:11.060Z,0.00
2022-10-31T05:25:11.075Z,0.00
2022-10-31T05:26:11.064Z,0.00
2022-10-31T05:27:11.064Z,0.00
2022-10-31T05:28:11.070Z,0.00
2022-10-31T05:29:11.061Z,0.00
2022-10-31T05:30:11.058Z,0.00
2022-10-31T05:31:11.062Z,0.00
2022-10-31T05:32:11.062Z,0.00
2022-10-31T05:33:11.060Z,0.00
2022-10-31T05:34:11.062Z,0.00
2022-10-31T05:35:11.071Z,0.00
2022-10-31T05:36:11.061Z,0.00
2022-10-31T05:37:11.065Z,0.00
2022-10-31T05:38:11.072Z,0.00
2022-10-31T05:39:11.068Z,0.00
2022-10-31T05:40:11.063Z,0.00
2022-10-31T05:41:11.066Z,0.00
2022-10-31T05:42:11.064Z,0.00
2022-10-31T05:43:11.067Z,0.00
2022-10-31T05:44:11.065Z,0.00
2022-10-31T05:45:11.064Z,0.00
2022-10-31T05:46:11.061Z,0.00
2022-10-31T05:47:11.062Z,0.00
2022-10-31T05:48:11.064Z,0.00
2022-10-31T05:49:11.061Z,0.00
2022-10-31T05:50:11.062Z,0.00
2022-10-31T05:51:11.070Z,0.00
2022-10-31T05:52:11.062Z,0.00
2022-10-31T05:53:11.066Z,0.00
2022-10-31T05:54:15.702Z,0.00
2022-10-31T05:55:13.888Z,0.00
2022-10-31T05:56:11.063Z,0.00
2022-10-31T05:57:11.062Z,0.00
2022-10-31T05:58:11.064Z,0.00
2022-10-31T05:59:11.063Z,0.00
2022-10-31T06:00:11.067Z,0.00
2022-10-31T06:01:11.118Z,0.00
2022-10-31T06:02:11.065Z,0.00
2022-10-31T06:03:11.091Z,0.00
2022-10-31T06:04:11.067Z,0.00
2022-10-31T06:05:11.133Z,0.00
2022-10-31T06:06:11.063Z,0.00
2022-10-31T06:07:11.069Z,0.00
2022-10-31T06:08:11.066Z,0.00
2022-10-31T06:09:11.062Z,0.00
2022-10-31T06:10:11.066Z,0.00
2022-10-31T06:11:11.065Z,0.00
2022-10-31T06:12:11.065Z,0.00
2022-10-31T06:13:11.065Z,0.00
2022-10-31T06:14:11.068Z,0.00
2022-10-31T06:15:11.063Z,0.00
2022-10-31T06:16:11.068Z,0.00
2022-10-31T06:17:11.073Z,0.00
2022-10-31T06:18:11.115Z,0.00
2022-10-31T06:19:11.062Z,0.00
2022-10-31T06:20:11.068Z,0.00
2022-10-31T06:21:12.545Z,0.00
2022-10-31T06:22:11.061Z,0.00
2022-10-31T06:23:11.064Z,0.00
2022-10-31T06:24:11.068Z,0.00
2022-10-31T06:25:11.064Z,0.00
2022-10-31T06:26:11.060Z,0.00
2022-10-31T06:27:11.067Z,0.00
2022-10-31T06:28:11.063Z,0.00
2022-10-31T06:29:11.061Z,0.00
2022-10-31T06:30:11.063Z,0.00
2022-10-31T06:31:11.064Z,0.00
2022-10-31T06:32:12.062Z,0.00
2022-10-31T06:33:11.063Z,0.00
2022-10-31T06:34:11.070Z,0.00
2022-10-31T06:35:11.061Z,0.00
2022-10-31T06:36:11.060Z,0.00
2022-10-31T06:37:11.065Z,0.00
2022-10-31T06:38:11.074Z,0.00
2022-10-31T06:39:11.061Z,0.00
2022-10-31T06:40:11.065Z,0.00
2022-10-31T06:41:11.071Z,0.00
2022-10-31T06:42:11.063Z,0.00
2022-10-31T06:43:11.066Z,0.00
2022-10-31T06:44:11.067Z,0.00
2022-10-31T06:45:11.065Z,0.00
2022-10-31T06:46:11.064Z,0.00
2022-10-31T06:47:11.065Z,0.00
2022-10-31T06:48:17.044Z,0.00
2022-10-31T06:49:13.096Z,0.00
2022-10-31T06:50:11.060Z,0.00
2022-10-31T06:51:11.067Z,0.00
2022-10-31T06:52:11.066Z,0.00
2022-10-31T06:54:11.068Z,0.00
2022-10-31T06:55:11.070Z,0.00
2022-10-31T06:56:11.061Z,0.00
2022-10-31T06:57:11.074Z,0.00
2022-10-31T06:58:11.223Z,0.00
2022-10-31T06:59:11.083Z,0.00
2022-10-31T07:00:11.066Z,0.00
2022-10-31T07:01:11.199Z,0.00
2022-10-31T07:02:11.233Z,0.00
2022-10-31T07:03:13.066Z,0.00
2022-10-31T07:04:11.069Z,0.00
2022-10-31T07:05:11.067Z,0.00
2022-10-31T07:06:11.069Z,0.00
2022-10-31T07:07:11.068Z,0.00
2022-10-31T07:08:11.067Z,0.00
2022-10-31T07:09:11.066Z,0.00
2022-10-31T07:11:11.077Z,0.01
2022-10-31T07:12:11.066Z,0.01
2022-10-31T07:13:14.079Z,0.01
2022-10-31T07:14:11.069Z,0.01
2022-10-31T07:15:11.067Z,0.02
2022-10-31T07:16:11.066Z,0.02
2022-10-31T07:17:11.066Z,0.01
2022-10-31T07:18:11.076Z,0.02
2022-10-31T07:19:11.066Z,0.01
2022-10-31T07:20:11.069Z,0.02
2022-10-31T07:21:11.070Z,0.02
2022-10-31T07:22:11.058Z,0.03
2022-10-31T07:23:11.064Z,0.02
2022-10-31T07:24:11.063Z,0.02
2022-10-31T07:25:11.062Z,0.02
2022-10-31T07:26:11.061Z,0.03
2022-10-31T07:27:11.068Z,0.03
2022-10-31T07:28:11.069Z,0.04
2022-10-31T07:29:11.056Z,0.04
2022-10-31T07:30:11.064Z,0.04
2022-10-31T07:31:11.068Z,0.04
2022-10-31T07:32:11.059Z,0.05
2022-10-31T07:33:11.060Z,0.04
2022-10-31T07:34:11.063Z,0.04
2022-10-31T07:35:12.060Z,0.05
2022-10-31T07:36:11.062Z,0.05
2022-10-31T07:37:11.070Z,0.05
2022-10-31T07:38:13.064Z,0.06
2022-10-31T07:39:11.062Z,0.05
2022-10-31T07:40:11.070Z,0.05
2022-10-31T07:41:11.065Z,0.05
2022-10-31T07:42:11.066Z,0.06
2022-10-31T07:43:14.597Z,0.05
2022-10-31T07:44:11.063Z,0.04
2022-10-31T07:45:11.058Z,0.06
2022-10-31T07:46:11.063Z,0.05
2022-10-31T07:47:11.064Z,0.06
2022-10-31T07:48:11.064Z,0.06
2022-10-31T07:49:11.064Z,0.06
2022-10-31T07:50:11.072Z,0.06
2022-10-31T07:51:11.061Z,0.07
2022-10-31T07:52:11.066Z,0.06
2022-10-31T07:53:13.070Z,0.07
2022-10-31T07:54:11.065Z,0.08
2022-10-31T07:55:11.066Z,0.08
2022-10-31T07:56:11.065Z,0.11
2022-10-31T07:57:11.065Z,0.08
2022-10-31T07:58:14.062Z,0.07
2022-10-31T07:59:11.068Z,0.08
2022-10-31T08:00:11.073Z,0.08
2022-10-31T08:02:11.062Z,0.08
2022-10-31T08:03:14.073Z,0.08
2022-10-31T08:04:11.065Z,0.08
2022-10-31T08:05:11.065Z,0.09
2022-10-31T08:06:11.064Z,0.08
2022-10-31T08:07:11.065Z,0.09
2022-10-31T08:08:11.064Z,0.10
2022-10-31T08:09:11.069Z,0.10
2022-10-31T08:10:11.065Z,0.10
2022-10-31T08:11:11.066Z,0.10
2022-10-31T08:12:11.065Z,0.09
2022-10-31T08:13:11.065Z,0.09
2022-10-31T08:14:11.066Z,0.10
2022-10-31T08:15:11.066Z,0.11
2022-10-31T08:16:12.068Z,0.10
2022-10-31T08:17:11.064Z,0.10
2022-10-31T08:18:14.070Z,0.11
2022-10-31T08:19:11.069Z,0.13
2022-10-31T08:20:11.067Z,0.13
2022-10-31T08:21:11.058Z,0.12
2022-10-31T08:22:11.059Z,0.11
2022-10-31T08:23:11.061Z,0.12
2022-10-31T08:24:11.058Z,0.11
2022-10-31T08:25:11.059Z,0.10
2022-10-31T08:26:11.066Z,0.10
2022-10-31T08:27:11.061Z,0.09
2022-10-31T08:28:11.057Z,0.08
2022-10-31T08:29:11.061Z,0.08
2022-10-31T08:30:11.060Z,0.10
2022-10-31T08:31:11.066Z,0.10
2022-10-31T08:32:11.062Z,0.10
2022-10-31T08:33:17.063Z,0.10
2022-10-31T08:34:11.062Z,0.11
2022-10-31T08:35:11.064Z,0.14
2022-10-31T08:36:11.063Z,0.15
2022-10-31T08:37:11.059Z,0.15
2022-10-31T08:38:13.062Z,0.14
2022-10-31T08:39:11.069Z,0.16
2022-10-31T08:40:11.059Z,0.16
2022-10-31T08:41:11.057Z,0.19
2022-10-31T08:42:11.068Z,0.20
2022-10-31T08:43:15.077Z,0.19
2022-10-31T08:44:11.061Z,0.16
2022-10-31T08:45:11.063Z,0.16
2022-10-31T08:46:11.063Z,0.16
2022-10-31T08:47:11.059Z,0.16
2022-10-31T08:48:12.064Z,0.16
2022-10-31T08:49:11.064Z,0.15
2022-10-31T08:50:11.063Z,0.19
2022-10-31T08:51:11.062Z,0.21
2022-10-31T08:52:14.456Z,0.21
2022-10-31T08:53:18.061Z,0.18
2022-10-31T08:54:11.060Z,0.20
2022-10-31T08:55:11.070Z,0.21
2022-10-31T08:56:11.065Z,0.23
2022-10-31T08:57:11.063Z,0.21
2022-10-31T08:58:12.067Z,0.17
2022-10-31T08:59:11.066Z,0.21
2022-10-31T09:00:11.067Z,0.18
2022-10-31T09:01:11.178Z,0.19
2022-10-31T09:02:11.163Z,0.18
2022-10-31T09:03:18.060Z,0.18
2022-10-31T09:04:11.066Z,0.17
2022-10-31T09:05:11.072Z,0.15
2022-10-31T09:06:13.114Z,0.15
2022-10-31T09:07:21.686Z,0.13
2022-10-31T09:08:16.412Z,0.13
2022-10-31T09:09:11.065Z,0.14
2022-10-31T09:10:11.067Z,0.14
2022-10-31T09:11:11.066Z,0.14
2022-10-31T09:12:11.075Z,0.14
2022-10-31T09:13:16.073Z,0.15
2022-10-31T09:14:11.063Z,0.16
2022-10-31T09:15:11.066Z,0.15
2022-10-31T09:16:11.066Z,0.15
2022-10-31T09:17:11.063Z,0.14
2022-10-31T09:18:11.065Z,0.15
2022-10-31T09:19:11.604Z,0.15
2022-10-31T09:20:11.065Z,0.15
2022-10-31T09:21:11.061Z,0.15
2022-10-31T09:22:11.062Z,0.14
2022-10-31T09:23:12.058Z,0.15
2022-10-31T09:24:11.061Z,0.17
2022-10-31T09:25:11.070Z,0.16
2022-10-31T09:26:11.062Z,0.15
2022-10-31T09:27:11.061Z,0.16
2022-10-31T09:28:11.065Z,0.16
2022-10-31T09:29:11.062Z,0.16
2022-10-31T09:30:11.060Z,0.17
2022-10-31T09:31:11.060Z,0.18
2022-10-31T09:32:11.069Z,0.21
2022-10-31T09:33:12.063Z,0.22
2022-10-31T09:34:11.061Z,0.23
2022-10-31T09:36:11.060Z,0.20
2022-10-31T09:37:11.065Z,0.20
2022-10-31T09:38:20.261Z,0.20
2022-10-31T09:39:11.090Z,0.19
2022-10-31T09:40:11.065Z,0.19
2022-10-31T09:41:19.063Z,0.20
2022-10-31T09:42:19.077Z,0.21
2022-10-31T09:43:16.064Z,0.24
2022-10-31T09:44:19.062Z,0.27
2022-10-31T09:45:22.066Z,0.30
2022-10-31T09:46:19.063Z,0.28
2022-10-31T09:47:22.070Z,0.24
2022-10-31T09:48:25.064Z,0.25
2022-10-31T09:49:19.112Z,0.23
2022-10-31T09:50:19.061Z,0.21
2022-10-31T09:51:13.066Z,0.21
2022-10-31T09:52:20.068Z,0.21
2022-10-31T09:53:25.078Z,0.20
2022-10-31T09:54:20.071Z,0.20
2022-10-31T09:55:19.064Z,0.21
2022-10-31T09:56:13.064Z,0.21
2022-10-31T09:57:15.068Z,0.21
2022-10-31T09:58:19.072Z,0.21
2022-10-31T09:59:19.067Z,0.22
2022-10-31T10:00:18.067Z,0.23
2022-10-31T10:01:19.273Z,0.21
2022-10-31T10:02:24.068Z,0.22
2022-10-31T10:03:18.066Z,0.21
2022-10-31T10:04:22.080Z,0.22
2022-10-31T10:05:18.066Z,0.22
2022-10-31T10:06:20.067Z,0.23
2022-10-31T10:07:21.065Z,0.23
2022-10-31T10:08:19.068Z,0.23
2022-10-31T10:09:11.136Z,0.23
2022-10-31T10:10:19.067Z,0.24
2022-10-31T10:11:19.066Z,0.24
2022-10-31T10:12:22.067Z,0.23
2022-10-31T10:13:19.069Z,0.23
2022-10-31T10:14:22.067Z,0.23
2022-10-31T10:15:19.069Z,0.24
2022-10-31T10:16:25.068Z,0.24
2022-10-31T10:17:22.065Z,0.24
2022-10-31T10:18:19.068Z,0.24
2022-10-31T10:19:22.069Z,0.25
2022-10-31T10:20:20.709Z,0.24
2022-10-31T10:21:19.060Z,0.25
2022-10-31T10:22:19.056Z,0.25
2022-10-31T10:23:19.062Z,0.25
2022-10-31T10:24:19.059Z,0.27
2022-10-31T10:25:19.074Z,0.26
2022-10-31T10:26:19.115Z,0.25
2022-10-31T10:27:23.423Z,0.28
2022-10-31T10:28:19.060Z,0.26
2022-10-31T10:29:19.062Z,0.26
2022-10-31T10:30:18.062Z,0.26
2022-10-31T10:31:20.082Z,0.31
2022-10-31T10:32:23.063Z,0.23
2022-10-31T10:33:20.060Z,0.22
2022-10-31T10:34:20.083Z,0.21
2022-10-31T10:35:19.062Z,0.26
2022-10-31T10:36:17.064Z,0.25
2022-10-31T10:37:19.063Z,0.22
2022-10-31T10:38:22.064Z,0.20
2022-10-31T10:39:19.059Z,0.27
2022-10-31T10:40:18.064Z,0.20
2022-10-31T10:41:18.064Z,0.18
2022-10-31T10:42:15.070Z,0.19
2022-10-31T10:43:26.061Z,0.20
2022-10-31T10:44:13.070Z,0.22
2022-10-31T10:45:18.062Z,0.20
2022-10-31T10:46:23.064Z,0.24
2022-10-31T10:47:15.067Z,0.23
2022-10-31T10:48:19.066Z,0.30
2022-10-31T10:49:19.062Z,0.32
2022-10-31T10:50:20.065Z,0.31
2022-10-31T10:51:25.758Z,0.25
2022-10-31T10:52:40.796Z,0.24
2022-10-31T10:53:21.092Z,0.20
2022-10-31T10:54:22.069Z,0.19
2022-10-31T10:55:19.063Z,0.20
2022-10-31T10:56:19.063Z,0.21
2022-10-31T10:57:19.068Z,0.24
2022-10-31T10:58:11.097Z,0.23
2022-10-31T10:59:17.066Z,0.22
2022-10-31T11:00:19.174Z,0.21
2022-10-31T11:02:18.071Z,0.20
2022-10-31T11:03:11.071Z,0.21
2022-10-31T11:04:22.064Z,0.22
2022-10-31T11:05:17.064Z,0.24
2022-10-31T11:06:19.066Z,0.26
2022-10-31T11:07:11.068Z,0.23
2022-10-31T11:08:11.067Z,0.23
2022-10-31T11:09:13.065Z,0.25
2022-10-31T11:10:14.125Z,0.24
2022-10-31T11:11:19.070Z,0.25
2022-10-31T11:12:20.120Z,0.24
2022-10-31T11:13:22.067Z,0.23
2022-10-31T11:14:16.075Z,0.23
2022-10-31T11:15:19.069Z,0.21
2022-10-31T11:16:19.080Z,0.21
2022-10-31T11:17:17.067Z,0.20
2022-10-31T11:18:19.102Z,0.19
2022-10-31T11:19:17.064Z,0.20
2022-10-31T11:20:19.387Z,0.20
2022-10-31T11:21:19.072Z,0.22
2022-10-31T11:22:15.060Z,0.21
2022-10-31T11:23:18.056Z,0.21
2022-10-31T11:24:15.057Z,0.22
2022-10-31T11:25:19.062Z,0.23
2022-10-31T11:26:21.071Z,0.22
2022-10-31T11:27:21.061Z,0.22
2022-10-31T11:28:13.060Z,0.22
2022-10-31T11:29:20.056Z,0.22
2022-10-31T11:30:13.072Z,0.22
2022-10-31T11:31:13.072Z,0.22
2022-10-31T11:32:22.065Z,0.22
2022-10-31T11:33:18.059Z,0.21
2022-10-31T11:34:19.062Z,0.21
2022-10-31T11:35:15.061Z,0.21
2022-10-31T11:36:21.062Z,0.21
2022-10-31T11:37:16.063Z,0.21
2022-10-31T11:38:15.060Z,0.21
2022-10-31T11:39:19.062Z,0.22
2022-10-31T11:40:19.068Z,0.21
2022-10-31T11:41:18.061Z,0.21
2022-10-31T11:42:11.064Z,0.20
2022-10-31T11:43:16.064Z,0.20
2022-10-31T11:44:19.068Z,0.21
2022-10-31T11:45:22.061Z,0.20
2022-10-31T11:46:16.060Z,0.21
2022-10-31T11:47:15.058Z,0.21
2022-10-31T11:48:20.065Z,0.21
2022-10-31T11:49:19.070Z,0.21
2022-10-31T11:50:18.065Z,0.22
2022-10-31T11:51:11.061Z,0.23
2022-10-31T11:52:19.062Z,0.23
2022-10-31T11:53:18.078Z,0.25
2022-10-31T11:54:19.064Z,0.25
2022-10-31T11:55:22.061Z,0.26
2022-10-31T11:56:15.061Z,0.27
2022-10-31T11:57:19.063Z,0.27
2022-10-31T11:58:19.075Z,0.28
2022-10-31T11:59:19.069Z,0.27
2022-10-31T12:00:19.169Z,0.27
2022-10-31T12:01:19.114Z,0.27
2022-10-31T12:02:19.236Z,0.26
2022-10-31T12:03:19.071Z,0.26
2022-10-31T12:04:11.066Z,0.27
2022-10-31T12:05:22.064Z,0.26
2022-10-31T12:06:19.066Z,0.27
2022-10-31T12:07:11.064Z,0.27
2022-10-31T12:08:12.084Z,0.27
2022-10-31T12:09:19.061Z,0.26
2022-10-31T12:10:13.070Z,0.26
2022-10-31T12:11:20.068Z,0.26
2022-10-31T12:12:22.064Z,0.26
2022-10-31T12:13:25.067Z,0.27
2022-10-31T12:14:25.062Z,0.26
2022-10-31T12:15:19.068Z,0.25
2022-10-31T12:16:20.125Z,0.24
2022-10-31T12:17:19.075Z,0.24
2022-10-31T12:18:19.079Z,0.23
2022-10-31T12:19:19.065Z,0.23
2022-10-31T12:20:25.063Z,0.24
2022-10-31T12:21:19.061Z,0.23
2022-10-31T12:22:19.059Z,0.24
2022-10-31T12:23:19.077Z,0.23
2022-10-31T12:24:19.061Z,0.23
2022-10-31T12:25:22.059Z,0.23
2022-10-31T12:26:21.063Z,0.23
2022-10-31T12:27:22.060Z,0.23
2022-10-31T12:28:22.067Z,0.23
2022-10-31T12:29:19.073Z,0.24
2022-10-31T12:30:17.062Z,0.24
2022-10-31T12:31:19.062Z,0.25
2022-10-31T12:32:22.062Z,0.24
2022-10-31T12:33:19.063Z,0.23
2022-10-31T12:34:19.062Z,0.24
2022-10-31T12:35:22.059Z,0.23
2022-10-31T12:36:19.060Z,0.22
2022-10-31T12:37:19.063Z,0.22
2022-10-31T12:38:22.069Z,0.22
2022-10-31T12:39:22.062Z,0.22
2022-10-31T12:40:22.078Z,0.21
2022-10-31T12:41:22.064Z,0.21
2022-10-31T12:42:22.059Z,0.21
2022-10-31T12:43:22.065Z,0.20
2022-10-31T12:44:19.074Z,0.21
2022-10-31T12:45:19.065Z,0.22
2022-10-31T12:46:22.063Z,0.23
2022-10-31T12:47:19.064Z,0.23
2022-10-31T12:48:19.064Z,0.24
2022-10-31T12:49:22.070Z,0.25
2022-10-31T12:50:19.065Z,0.23
2022-10-31T12:51:19.065Z,0.23
2022-10-31T12:52:19.066Z,0.23
2022-10-31T12:54:22.071Z,0.22
2022-10-31T12:55:19.065Z,0.22
2022-10-31T12:56:22.063Z,0.21
2022-10-31T12:57:25.065Z,0.22
2022-10-31T12:58:21.062Z,0.22
2022-10-31T12:59:22.065Z,0.25
2022-10-31T13:00:15.068Z,0.25
2022-10-31T13:01:20.237Z,0.23
2022-10-31T13:02:19.215Z,0.23
2022-10-31T13:03:19.065Z,0.24
2022-10-31T13:04:19.065Z,0.23
2022-10-31T13:05:19.072Z,0.25
2022-10-31T13:06:16.067Z,0.25
2022-10-31T13:07:16.063Z,0.24
2022-10-31T13:08:22.066Z,0.23
2022-10-31T13:09:17.068Z,0.22
2022-10-31T13:10:19.068Z,0.22
2022-10-31T13:11:22.063Z,0.21
2022-10-31T13:12:14.066Z,0.20
2022-10-31T13:13:20.069Z,0.20
2022-10-31T13:14:19.081Z,0.20
2022-10-31T13:15:17.074Z,0.19
2022-10-31T13:16:16.077Z,0.18
2022-10-31T13:17:18.068Z,0.18
2022-10-31T13:18:18.089Z,0.17
2022-10-31T13:19:19.068Z,0.16
2022-10-31T13:20:17.066Z,0.17
2022-10-31T13:21:19.062Z,0.17
2022-10-31T13:22:18.061Z,0.17
2022-10-31T13:23:48.577Z,0.16
2022-10-31T13:24:23.125Z,0.16
2022-10-31T13:25:20.057Z,0.16
2022-10-31T13:26:13.071Z,0.16
2022-10-31T13:27:18.061Z,0.16